createdAt,value
2018-11-12T00:00:46.296Z,100434.29
2018-11-12T00:03:14.604Z,100440.83
2018-11-12T00:05:42.958Z,100434.16
2018-11-12T00:08:11.233Z,100436.63
2018-11-12T00:10:39.550Z,100435.45
2018-11-12T00:13:07.783Z,100437.87
2018-11-12T00:15:36.092Z,100436.52
2018-11-12T00:18:04.584Z,100447.36
2018-11-12T00:20:32.892Z,100435.13
2018-11-12T00:23:01.105Z,100433.17
2018-11-12T00:25:29.434Z,100432.66
2018-11-12T00:27:58.100Z,100438.20
2018-11-12T00:30:26.369Z,100436.77
2018-11-12T00:32:54.678Z,100448.32
2018-11-12T00:35:23.752Z,100438.95
2018-11-12T00:37:52.049Z,100444.78
2018-11-12T00:40:20.309Z,100443.81
2018-11-12T00:42:49.062Z,100451.45
2018-11-12T00:45:17.456Z,100453.77
2018-11-12T00:47:45.818Z,100458.11
2018-11-12T00:50:15.142Z,100464.20
2018-11-12T00:52:43.423Z,100475.63
2018-11-12T00:55:13.225Z,100480.92
2018-11-12T00:57:41.887Z,100490.16
2018-11-12T01:00:18.807Z,100496.50
2018-11-12T01:02:48.735Z,100497.34
2018-11-12T01:05:18.337Z,100500.12
2018-11-12T01:07:47.319Z,100496.22
2018-11-12T01:10:20.070Z,100508.15
2018-11-12T01:12:48.350Z,100509.79
2018-11-12T01:15:23.275Z,100496.95
2018-11-12T01:17:51.540Z,100506.76
2018-11-12T01:20:20.294Z,100509.80
2018-11-12T01:22:49.461Z,100500.89
2018-11-12T01:25:17.679Z,100498.52
2018-11-12T01:27:46.011Z,100498.41
2018-11-12T01:30:15.513Z,100494.64
2018-11-12T01:32:43.921Z,100487.70
2018-11-12T01:35:13.383Z,100484.33
2018-11-12T01:37:41.606Z,100493.50
2018-11-12T01:40:11.412Z,100500.25
2018-11-12T01:42:39.736Z,100498.74
2018-11-12T01:45:12.255Z,100490.12
2018-11-12T01:47:40.600Z,100492.05
2018-11-12T01:50:10.329Z,100480.72
2018-11-12T01:52:38.663Z,100485.53
2018-11-12T01:55:08.868Z,100489.50
2018-11-12T01:57:37.125Z,100480.66
2018-11-12T02:00:09.604Z,100491.01
2018-11-12T02:02:37.860Z,100495.27
2018-11-12T02:05:07.630Z,100489.48
2018-11-12T02:07:36.682Z,100486.84
2018-11-12T02:10:06.728Z,100496.36
2018-11-12T02:12:35.005Z,100498.64
2018-11-12T02:15:03.771Z,100487.69
2018-11-12T02:17:32.048Z,100490.36
2018-11-12T02:20:00.628Z,100484.28
2018-11-12T02:22:28.891Z,100486.05
2018-11-12T02:24:57.081Z,100492.92
2018-11-12T02:27:25.390Z,100490.16
2018-11-12T02:29:53.636Z,100489.48
2018-11-12T02:32:21.870Z,100490.55
2018-11-12T02:34:50.156Z,100496.29
2018-11-12T02:37:18.400Z,100489.87
2018-11-12T02:39:46.912Z,100489.98
2018-11-12T02:42:16.434Z,100487.86
2018-11-12T02:44:45.119Z,100486.52
2018-11-12T02:47:13.375Z,100488.66
2018-11-12T02:49:41.662Z,100492.64
2018-11-12T02:52:09.957Z,100492.91
2018-11-12T02:54:38.300Z,100489.38
2018-11-12T02:57:13.095Z,100491.18
2018-11-12T02:59:41.513Z,100501.24
2018-11-12T03:02:09.796Z,100496.98
2018-11-12T03:04:38.216Z,100488.88
2018-11-12T03:07:06.411Z,100495.28
2018-11-12T03:09:34.671Z,100496.23
2018-11-12T03:12:03.227Z,100495.84
2018-11-12T03:14:31.529Z,100503.34
2018-11-12T03:16:59.925Z,100505.02
2018-11-12T03:19:28.219Z,100501.03
2018-11-12T03:21:56.497Z,100491.17
2018-11-12T03:24:24.785Z,100502.16
2018-11-12T03:26:53.043Z,100495.84
2018-11-12T03:29:21.357Z,100498.48
2018-11-12T03:31:49.584Z,100513.56
2018-11-12T03:34:17.863Z,100506.77
2018-11-12T03:36:46.135Z,100518.00
2018-11-12T03:39:14.397Z,100513.95
2018-11-12T03:41:42.574Z,100505.45
2018-11-12T03:44:10.890Z,100506.81
2018-11-12T03:46:39.130Z,100498.48
2018-11-12T03:49:07.368Z,100495.67
2018-11-12T03:51:35.568Z,100498.03
2018-11-12T03:54:03.920Z,100495.95
2018-11-12T03:56:32.141Z,100500.03
2018-11-12T03:59:00.275Z,100492.77
2018-11-12T04:01:34.008Z,100498.78
2018-11-12T04:04:02.241Z,100502.61
2018-11-12T04:06:30.448Z,100502.70
2018-11-12T04:08:58.653Z,100502.47
2018-11-12T04:11:27.362Z,100507.81
2018-11-12T04:13:55.628Z,100503.08
2018-11-12T04:16:23.880Z,100503.38
2018-11-12T04:18:52.111Z,100496.10
2018-11-12T04:21:20.435Z,100505.88
2018-11-12T04:23:48.717Z,100496.11
2018-11-12T04:26:16.903Z,100495.38
2018-11-12T04:28:45.158Z,100491.45
2018-11-12T04:31:13.369Z,100499.87
2018-11-12T04:33:41.563Z,100498.52
2018-11-12T04:36:09.896Z,100498.45
2018-11-12T04:38:38.134Z,100501.29
2018-11-12T04:41:06.394Z,100501.00
2018-11-12T04:43:34.601Z,100500.39
2018-11-12T04:46:02.871Z,100494.61
2018-11-12T04:48:31.080Z,100500.85
2018-11-12T04:50:59.428Z,100498.41
2018-11-12T04:53:28.703Z,100502.41
2018-11-12T04:55:56.999Z,100504.79
2018-11-12T04:58:25.221Z,100496.10
2018-11-12T05:00:53.877Z,100493.22
2018-11-12T05:03:22.156Z,100492.20
2018-11-12T05:05:50.409Z,100485.06
2018-11-12T05:08:18.639Z,100485.69
2018-11-12T05:10:46.853Z,100489.38
2018-11-12T05:13:15.082Z,100486.06
2018-11-12T05:15:43.317Z,100484.86
2018-11-12T05:18:11.552Z,100484.46
2018-11-12T05:20:39.809Z,100486.65
2018-11-12T05:23:08.147Z,100487.67
2018-11-12T05:25:36.439Z,100485.66
2018-11-12T05:28:04.697Z,100486.69
2018-11-12T05:30:51.783Z,100485.72
2018-11-12T05:33:20.031Z,100469.23
2018-11-12T05:35:48.632Z,100469.89
2018-11-12T05:38:16.948Z,100471.18
2018-11-12T05:40:45.232Z,100478.06
2018-11-12T05:43:13.479Z,100475.84
2018-11-12T05:45:42.334Z,100475.30
2018-11-12T05:48:10.627Z,100480.13
2018-11-12T05:50:38.933Z,100489.36
2018-11-12T05:53:07.168Z,100482.70
2018-11-12T05:55:35.376Z,100484.34
2018-11-12T05:58:03.660Z,100480.29
2018-11-12T06:00:34.370Z,100489.38
2018-11-12T06:03:02.670Z,100493.42
2018-11-12T06:05:31.601Z,100501.80
2018-11-12T06:07:59.951Z,100503.44
2018-11-12T06:10:29.200Z,100504.52
2018-11-12T06:12:57.464Z,100507.09
2018-11-12T06:15:25.727Z,100516.98
2018-11-12T06:17:54.000Z,100515.88
2018-11-12T06:20:31.062Z,100513.05
2018-11-12T06:22:59.324Z,100517.55
2018-11-12T06:25:30.013Z,100526.77
2018-11-12T06:27:58.309Z,100524.80
2018-11-12T06:30:28.512Z,100528.86
2018-11-12T06:32:56.838Z,100530.78
2018-11-12T06:35:25.141Z,100534.31
2018-11-12T06:37:53.780Z,100530.03
2018-11-12T06:40:23.605Z,100534.55
2018-11-12T06:42:52.288Z,100527.74
2018-11-12T06:45:22.622Z,100522.66
2018-11-12T06:47:51.637Z,100530.91
2018-11-12T06:50:22.041Z,100537.98
2018-11-12T06:52:50.482Z,100537.25
2018-11-12T06:55:19.685Z,100533.06
2018-11-12T06:57:49.207Z,100535.95
2018-11-12T07:00:23.663Z,100531.48
2018-11-12T07:02:51.930Z,100529.08
2018-11-12T07:05:20.751Z,100532.30
2018-11-12T07:07:49.016Z,100534.35
2018-11-12T07:10:20.103Z,100526.08
2018-11-12T07:12:49.315Z,100537.58
2018-11-12T07:15:18.597Z,100536.67
2018-11-12T07:17:47.595Z,100542.59
2018-11-12T07:20:18.688Z,100540.64
2018-11-12T07:22:47.648Z,100555.07
2018-11-12T07:25:17.298Z,100548.16
2018-11-12T07:27:45.761Z,100544.01
2018-11-12T07:30:18.063Z,100535.17
2018-11-12T07:32:46.998Z,100541.87
2018-11-12T07:35:15.832Z,100551.85
2018-11-12T07:37:45.077Z,100549.06
2018-11-12T07:40:13.887Z,100558.84
2018-11-12T07:42:42.477Z,100545.23
2018-11-12T07:45:15.072Z,100548.17
2018-11-12T07:47:44.466Z,100549.02
2018-11-12T07:50:14.092Z,100542.80
2018-11-12T07:52:42.498Z,100534.41
2018-11-12T07:55:14.397Z,100537.64
2018-11-12T07:57:45.642Z,100559.05
2018-11-12T08:00:22.186Z,100569.50
2018-11-12T08:02:54.286Z,100561.63
2018-11-12T08:05:22.518Z,100561.92
2018-11-12T08:07:50.809Z,100562.59
2018-11-12T08:10:19.453Z,100558.09
2018-11-12T08:12:47.915Z,100561.61
2018-11-12T08:15:17.926Z,100561.09
2018-11-12T08:17:46.401Z,100562.27
2018-11-12T08:20:17.254Z,100561.34
2018-11-12T08:22:46.548Z,100564.80
2018-11-12T08:25:14.812Z,100562.46
2018-11-12T08:27:43.858Z,100562.47
2018-11-12T08:30:30.254Z,100561.72
2018-11-12T08:32:59.877Z,100553.38
2018-11-12T08:35:28.104Z,100554.12
2018-11-12T08:37:57.610Z,100550.72
2018-11-12T08:40:28.155Z,100555.91
2018-11-12T08:42:56.336Z,100558.14
2018-11-12T08:45:24.676Z,100557.24
2018-11-12T08:47:53.972Z,100556.16
2018-11-12T08:50:23.405Z,100555.47
2018-11-12T08:52:52.943Z,100548.47
2018-11-12T08:55:23.444Z,100541.09
2018-11-12T08:57:53.074Z,100543.97
2018-11-12T09:00:22.556Z,100548.91
2018-11-12T09:02:51.014Z,100541.84
2018-11-12T09:05:20.797Z,100537.52
2018-11-12T09:07:51.885Z,100531.59
2018-11-12T09:10:24.159Z,100539.74
2018-11-12T09:12:52.503Z,100542.47
2018-11-12T09:15:20.961Z,100540.09
2018-11-12T09:17:49.415Z,100542.30
2018-11-12T09:20:20.977Z,100535.02
2018-11-12T09:22:49.198Z,100522.89
2018-11-12T09:25:19.258Z,100511.05
2018-11-12T09:27:47.643Z,100518.22
2018-11-12T09:30:22.218Z,100521.45
2018-11-12T09:32:50.660Z,100517.88
2018-11-12T09:35:26.466Z,100530.19
2018-11-12T09:37:55.487Z,100529.42
2018-11-12T09:40:27.653Z,100516.70
2018-11-12T09:42:55.922Z,100520.74
2018-11-12T09:45:24.325Z,100527.77
2018-11-12T09:47:52.578Z,100518.16
2018-11-12T09:50:21.922Z,100520.41
2018-11-12T09:52:51.346Z,100497.58
2018-11-12T09:55:20.574Z,100493.77
2018-11-12T09:57:51.768Z,100496.59
2018-11-12T10:00:20.552Z,100482.88
2018-11-12T10:02:50.136Z,100483.26
2018-11-12T10:05:19.456Z,100487.79
2018-11-12T10:07:53.152Z,100482.52
2018-11-12T10:10:36.705Z,100488.53
2018-11-12T10:13:08.032Z,100503.89
2018-11-12T10:15:35.920Z,100501.25
2018-11-12T10:18:03.797Z,100490.19
2018-11-12T10:20:29.733Z,100503.65
2018-11-12T10:22:58.012Z,100500.71
2018-11-12T10:25:26.278Z,100498.53
2018-11-12T10:27:56.406Z,100504.60
2018-11-12T10:30:24.674Z,100495.64
2018-11-12T10:32:52.910Z,100498.24
2018-11-12T10:35:21.223Z,100482.23
2018-11-12T10:37:49.576Z,100496.09
2018-11-12T10:40:19.485Z,100498.02
2018-11-12T10:42:47.910Z,100491.50
2018-11-12T10:45:17.598Z,100486.60
2018-11-12T10:47:47.070Z,100486.14
2018-11-12T10:53:15.100Z,100471.20
2018-11-12T10:55:43.731Z,100465.98
2018-11-12T10:58:11.846Z,100456.21
2018-11-12T11:00:45.607Z,100454.30
2018-11-12T11:03:44.608Z,100453.59
2018-11-12T11:06:12.901Z,100449.62
2018-11-12T11:08:41.171Z,100449.22
2018-11-12T11:11:09.377Z,100443.61
2018-11-12T11:13:37.724Z,100437.04
2018-11-12T11:16:05.917Z,100436.11
2018-11-12T11:18:34.244Z,100435.59
2018-11-12T11:21:02.522Z,100435.00
2018-11-12T11:23:30.731Z,100437.67
2018-11-12T11:25:58.929Z,100433.45
2018-11-12T11:28:27.305Z,100409.63
2018-11-12T11:30:55.469Z,100405.34
2018-11-12T11:33:23.624Z,100406.64
2018-11-12T11:35:51.910Z,100412.62
2018-11-12T11:38:20.198Z,100418.28
2018-11-12T11:40:48.470Z,100411.75
2018-11-12T11:43:16.757Z,100417.48
2018-11-12T11:45:45.528Z,100402.87
2018-11-12T11:48:13.753Z,100413.84
2018-11-12T11:50:42.051Z,100411.65
2018-11-12T11:53:10.245Z,100416.61
2018-11-12T11:55:38.674Z,100406.72
2018-11-12T11:58:06.886Z,100418.37
2018-11-12T12:00:35.075Z,100424.98
2018-11-12T12:03:03.349Z,100418.66
2018-11-12T12:05:31.532Z,100419.49
2018-11-12T12:07:59.755Z,100417.08
2018-11-12T12:10:30.072Z,100418.50
2018-11-12T12:12:59.428Z,100413.03
2018-11-12T12:15:27.738Z,100406.52
2018-11-12T12:17:56.026Z,100411.39
2018-11-12T12:20:32.229Z,100410.88
2018-11-12T12:23:00.435Z,100402.68
2018-11-12T12:25:28.740Z,100402.38
2018-11-12T12:27:56.939Z,100412.69
2018-11-12T12:30:26.456Z,100415.69
2018-11-12T12:32:55.452Z,100417.45
2018-11-12T12:35:23.675Z,100414.99
2018-11-12T12:37:52.235Z,100416.16
2018-11-12T12:40:21.952Z,100414.05
2018-11-12T12:42:50.242Z,100430.52
2018-11-12T12:45:19.979Z,100424.09
2018-11-12T12:47:48.843Z,100423.47
2018-11-12T12:50:17.965Z,100425.38
2018-11-12T12:52:46.131Z,100428.95
2018-11-12T12:55:15.516Z,100427.20
2018-11-12T12:57:44.301Z,100424.05
2018-11-12T13:00:16.047Z,100424.97
2018-11-12T13:02:44.295Z,100426.00
2018-11-12T13:05:12.576Z,100419.63
2018-11-12T13:07:41.794Z,100424.72
2018-11-12T13:10:12.900Z,100425.11
2018-11-12T13:12:41.243Z,100412.52
2018-11-12T13:15:11.802Z,100413.84
2018-11-12T13:17:40.164Z,100410.11
2018-11-12T13:20:11.881Z,100411.94
2018-11-12T13:22:41.621Z,100415.48
2018-11-12T13:25:10.347Z,100415.28
2018-11-12T13:27:39.401Z,100422.21
2018-11-12T13:30:13.932Z,100421.52
2018-11-12T13:32:42.717Z,100423.74
2018-11-12T13:35:12.843Z,100422.30
2018-11-12T13:37:41.068Z,100422.79
2018-11-12T13:40:17.324Z,100415.08
2018-11-12T13:42:48.007Z,100423.64
2018-11-12T13:45:16.151Z,100422.57
2018-11-12T13:47:45.476Z,100414.97
2018-11-12T13:50:20.652Z,100428.89
2018-11-12T13:52:49.313Z,100420.56
2018-11-12T13:55:18.612Z,100441.22
2018-11-12T13:57:46.912Z,100431.86
2018-11-12T14:00:17.067Z,100433.80
2018-11-12T14:02:46.426Z,100431.05
2018-11-12T14:05:18.359Z,100436.25
2018-11-12T14:07:46.843Z,100431.95
2018-11-12T14:10:17.271Z,100432.52
2018-11-12T14:12:47.315Z,100433.69
2018-11-12T14:15:19.059Z,100442.19
2018-11-12T14:17:48.242Z,100435.86
2018-11-12T14:20:16.518Z,100441.45
2018-11-12T14:22:44.645Z,100445.58
2018-11-12T14:25:14.368Z,100447.83
2018-11-12T14:27:43.083Z,100455.33
2018-11-12T14:30:15.297Z,100445.80
2018-11-12T14:32:43.696Z,100458.55
2018-11-12T14:35:13.181Z,100458.53
2018-11-12T14:37:43.826Z,100464.37
2018-11-12T14:40:13.173Z,100457.56
2018-11-12T14:42:42.237Z,100466.91
2018-11-12T14:45:13.111Z,100467.53
2018-11-12T14:47:42.051Z,100471.95
2018-11-12T14:50:10.805Z,100479.08
2018-11-12T14:52:39.557Z,100475.52
2018-11-12T14:55:13.866Z,100477.14
2018-11-12T14:57:42.177Z,100474.37
2018-11-12T15:00:17.787Z,100478.45
2018-11-12T15:02:46.053Z,100471.92
2018-11-12T15:05:15.773Z,100478.44
2018-11-12T15:07:44.050Z,100465.23
2018-11-12T15:10:13.309Z,100475.86
2018-11-12T15:12:42.477Z,100470.64
2018-11-12T15:15:11.956Z,100482.11
2018-11-12T15:17:40.163Z,100501.21
2018-11-12T15:20:10.942Z,100503.95
2018-11-12T15:22:39.310Z,100506.39
2018-11-12T15:25:18.651Z,100514.98
2018-11-12T15:27:46.917Z,100508.10
2018-11-12T15:30:16.635Z,100503.56
2018-11-12T15:32:45.882Z,100505.58
2018-11-12T15:35:14.160Z,100499.85
2018-11-12T15:37:43.638Z,100497.66
2018-11-12T15:40:12.877Z,100499.98
2018-11-12T15:42:41.542Z,100500.52
2018-11-12T15:45:13.557Z,100495.55
2018-11-12T15:47:43.161Z,100502.34
2018-11-12T15:50:15.563Z,100513.78
2018-11-12T15:52:44.836Z,100509.12
2018-11-12T15:55:13.120Z,100519.38
2018-11-12T15:57:41.372Z,100509.17
2018-11-12T16:00:14.377Z,100495.36
2018-11-12T16:02:42.659Z,100498.30
2018-11-12T16:05:11.860Z,100497.95
2018-11-12T16:07:40.111Z,100502.39
2018-11-12T16:10:15.751Z,100500.36
2018-11-12T16:12:44.049Z,100502.31
2018-11-12T16:15:13.321Z,100499.59
2018-11-12T16:17:41.623Z,100503.88
2018-11-12T16:20:19.818Z,100510.83
2018-11-12T16:22:48.749Z,100503.19
2018-11-12T16:25:17.360Z,100500.59
2018-11-12T16:27:45.612Z,100506.19
2018-11-12T16:30:41.366Z,100500.98
2018-11-12T16:33:10.657Z,100501.84
2018-11-12T16:35:39.010Z,100500.48
2018-11-12T16:38:07.319Z,100512.01
2018-11-12T16:40:49.780Z,100510.94
2018-11-12T16:43:18.186Z,100517.21
2018-11-12T16:45:46.820Z,100521.71
2018-11-12T16:48:15.168Z,100527.02
2018-11-12T16:50:43.605Z,100525.75
2018-11-12T16:53:18.037Z,100521.58
2018-11-12T16:56:05.646Z,100521.22
2018-11-12T16:58:33.869Z,100527.44
2018-11-12T17:01:02.155Z,100535.45
2018-11-12T17:03:30.585Z,100527.36
2018-11-12T17:05:58.837Z,100529.05
2018-11-12T17:08:27.049Z,100531.03
2018-11-12T17:10:58.045Z,100519.52
2018-11-12T17:13:26.282Z,100526.55
2018-11-12T17:15:54.509Z,100529.40
2018-11-12T17:18:22.782Z,100531.28
2018-11-12T17:20:50.964Z,100527.77
2018-11-12T17:23:19.127Z,100552.67
2018-11-12T17:25:47.363Z,100558.71
2018-11-12T17:28:15.686Z,100567.05
2018-11-12T17:30:44.050Z,100571.12
2018-11-12T17:33:13.956Z,100584.77
2018-11-12T17:35:42.545Z,100585.28
2018-11-12T17:38:46.666Z,100599.31
2018-11-12T17:41:14.994Z,100592.98
2018-11-12T17:43:43.349Z,100600.91
2018-11-12T17:46:11.492Z,100595.94
2018-11-12T17:48:39.802Z,100598.03
2018-11-12T17:51:07.931Z,100593.67
2018-11-12T17:53:36.120Z,100593.95
2018-11-12T17:56:04.496Z,100608.32
2018-11-12T17:58:32.977Z,100600.55
2018-11-12T18:01:01.785Z,100610.30
2018-11-12T18:03:30.561Z,100614.23
2018-11-12T18:05:58.786Z,100604.69
2018-11-12T18:08:26.906Z,100607.48
2018-11-12T18:10:55.126Z,100603.94
2018-11-12T18:13:23.375Z,100611.67
2018-11-12T18:15:51.508Z,100615.46
2018-11-12T18:18:26.393Z,100613.73
2018-11-12T18:20:55.754Z,100612.89
2018-11-12T18:23:24.052Z,100617.47
2018-11-12T18:25:52.429Z,100618.83
2018-11-12T18:28:20.666Z,100623.14
2018-11-12T18:30:49.313Z,100615.88
2018-11-12T18:33:17.112Z,100622.55
2018-11-12T18:35:46.291Z,100623.05
2018-11-12T18:38:14.581Z,100624.34
2018-11-12T18:40:42.885Z,100622.58
2018-11-12T18:43:11.975Z,100625.30
2018-11-12T18:45:40.263Z,100625.70
2018-11-12T18:48:08.542Z,100627.30
2018-11-12T18:50:36.807Z,100621.40
2018-11-12T18:53:05.144Z,100614.02
2018-11-12T18:55:35.324Z,100615.56
2018-11-12T18:58:03.778Z,100603.41
2018-11-12T19:00:32.265Z,100608.12
2018-11-12T19:03:00.977Z,100596.52
2018-11-12T19:05:29.385Z,100594.16
2018-11-12T19:08:00.485Z,100600.86
2018-11-12T19:10:30.921Z,100616.89
2018-11-12T19:12:59.883Z,100622.81
2018-11-12T19:15:33.040Z,100634.28
2018-11-12T19:18:06.325Z,100643.48
2018-11-12T19:20:34.650Z,100648.31
2018-11-12T19:23:03.403Z,100646.50
2018-11-12T19:25:31.751Z,100653.13
2018-11-12T19:28:00.248Z,100662.86
2018-11-12T19:30:29.462Z,100670.86
2018-11-12T19:33:02.637Z,100671.00
2018-11-12T19:35:32.729Z,100669.38
2018-11-12T19:38:02.604Z,100679.89
2018-11-12T19:40:32.090Z,100674.80
2018-11-12T19:43:00.334Z,100671.72
2018-11-12T19:45:28.699Z,100676.33
2018-11-12T19:47:57.345Z,100683.02
2018-11-12T19:50:26.909Z,100680.30
2018-11-12T19:52:57.049Z,100683.39
2018-11-12T19:55:25.267Z,100691.59
2018-11-12T19:57:53.541Z,100692.37
2018-11-12T20:00:24.185Z,100693.55
2018-11-12T20:02:54.767Z,100685.66
2018-11-12T20:05:23.193Z,100688.91
2018-11-12T20:07:51.744Z,100693.80
2018-11-12T20:10:20.987Z,100697.54
2018-11-12T20:12:49.269Z,100705.52
2018-11-12T20:15:18.754Z,100715.64
2018-11-12T20:17:48.958Z,100718.97
2018-11-12T20:20:19.718Z,100716.87
2018-11-12T20:22:48.654Z,100713.78
2018-11-12T20:25:18.038Z,100722.43
2018-11-12T20:27:47.640Z,100711.66
2018-11-12T20:30:22.884Z,100711.73
2018-11-12T20:32:51.261Z,100696.34
2018-11-12T20:35:19.613Z,100695.59
2018-11-12T20:37:48.174Z,100707.59
2018-11-12T20:40:17.522Z,100694.36
2018-11-12T20:42:47.059Z,100705.66
2018-11-12T20:45:16.843Z,100702.19
2018-11-12T20:47:50.059Z,100697.45
2018-11-12T20:50:19.073Z,100703.67
2018-11-12T20:52:47.336Z,100692.02
2018-11-12T20:55:16.427Z,100703.09
2018-11-12T20:57:44.943Z,100700.42
2018-11-12T21:00:16.359Z,100697.52
2018-11-12T21:02:46.717Z,100698.40
2018-11-12T21:05:15.704Z,100693.44
2018-11-12T21:07:43.883Z,100695.34
2018-11-12T21:10:16.161Z,100687.28
2018-11-12T21:12:46.439Z,100687.80
2018-11-12T21:15:16.623Z,100678.17
2018-11-12T21:17:44.892Z,100670.90
2018-11-12T21:20:15.390Z,100662.03
2018-11-12T21:22:43.845Z,100662.52
2018-11-12T21:25:13.590Z,100663.31
2018-11-12T21:27:41.818Z,100665.43
2018-11-12T21:30:15.329Z,100670.92
2018-11-12T21:32:43.660Z,100671.00
2018-11-12T21:35:11.937Z,100677.98
2018-11-12T21:37:40.242Z,100679.78
2018-11-12T21:40:13.076Z,100670.97
2018-11-12T21:42:41.481Z,100684.74
2018-11-12T21:45:11.538Z,100682.09
2018-11-12T21:47:40.999Z,100685.77
2018-11-12T21:50:13.360Z,100676.02
2018-11-12T21:52:41.529Z,100668.58
2018-11-12T21:55:10.878Z,100675.63
2018-11-12T21:57:39.554Z,100673.61
2018-11-12T22:00:18.944Z,100676.18
2018-11-12T22:02:48.332Z,100677.66
2018-11-12T22:05:16.549Z,100677.88
2018-11-12T22:07:44.819Z,100684.90
2018-11-12T22:10:14.801Z,100694.34
2018-11-12T22:12:44.756Z,100698.33
2018-11-12T22:15:13.037Z,100694.18
2018-11-12T22:17:41.869Z,100700.81
2018-11-12T22:20:12.314Z,100691.02
2018-11-12T22:22:41.365Z,100697.81
2018-11-12T22:25:12.227Z,100700.16
2018-11-12T22:27:40.978Z,100693.94
2018-11-12T22:30:12.850Z,100699.64
2018-11-12T22:32:41.469Z,100694.83
2018-11-12T22:35:10.327Z,100703.24
2018-11-12T22:37:38.691Z,100697.60
2018-11-12T22:40:09.675Z,100696.40
2018-11-12T22:42:38.241Z,100703.42
2018-11-12T22:45:10.237Z,100706.05
2018-11-12T22:47:38.508Z,100707.47
2018-11-12T22:50:09.270Z,100702.75
2018-11-12T22:52:38.197Z,100704.76
2018-11-12T22:55:07.482Z,100709.89
2018-11-12T22:57:35.783Z,100702.05
2018-11-12T23:00:08.225Z,100707.64
2018-11-12T23:02:36.436Z,100713.80
2018-11-12T23:05:05.773Z,100721.46
2018-11-12T23:07:33.890Z,100713.56
2018-11-12T23:10:01.933Z,100717.63
2018-11-12T23:12:30.124Z,100721.33
2018-11-12T23:14:58.240Z,100719.13
2018-11-12T23:17:26.356Z,100709.64
2018-11-12T23:19:54.556Z,100718.30
2018-11-12T23:22:22.590Z,100716.71
2018-11-12T23:24:50.689Z,100720.09
2018-11-12T23:27:18.862Z,100711.68
2018-11-12T23:29:46.926Z,100717.91
2018-11-12T23:32:15.076Z,100718.08
2018-11-12T23:34:43.160Z,100732.52
2018-11-12T23:37:11.277Z,100726.95
2018-11-12T23:39:39.462Z,100724.45
2018-11-12T23:42:07.584Z,100719.41
2018-11-12T23:44:35.704Z,100719.20
2018-11-12T23:47:04.545Z,100721.45
2018-11-12T23:49:32.724Z,100725.22
2018-11-12T23:52:00.828Z,100718.97
2018-11-12T23:54:28.956Z,100712.25
2018-11-12T23:56:57.121Z,100719.95
2018-11-12T23:59:25.189Z,100709.72
